createdAt,value
2023-02-12T00:00:15.924Z,4137.4
2023-02-12T00:05:52.101Z,4139.3
2023-02-12T00:11:30.484Z,4135.9
2023-02-12T00:17:07.961Z,4136.4
2023-02-12T00:22:50.665Z,4131.9
2023-02-12T00:28:26.347Z,4131.9
2023-02-12T00:34:01.930Z,4135.9
2023-02-12T00:39:38.164Z,4131.1
2023-02-12T00:45:16.653Z,4132.7
2023-02-12T00:50:52.746Z,4128.5
2023-02-12T00:56:28.111Z,4135.2
2023-02-12T01:02:42.691Z,4133.1
2023-02-12T01:08:18.281Z,4130.2
2023-02-12T01:13:53.833Z,4128.5
2023-02-12T01:19:30.077Z,4128.9
2023-02-12T01:25:09.073Z,4129.2
2023-02-12T01:30:45.991Z,4128.5
2023-02-12T01:36:21.295Z,4128.9
2023-02-12T01:41:59.831Z,4126.2
2023-02-12T01:47:34.906Z,4127.9
2023-02-12T01:53:31.557Z,4124.7
2023-02-12T01:59:24.524Z,4126
2023-02-12T02:05:20.866Z,4124.5
2023-02-12T02:10:58.339Z,4122.7
2023-02-12T02:17:28.428Z,4122.3
2023-02-12T02:23:04.060Z,4122.2
2023-02-12T02:29:03.476Z,4121.8
2023-02-12T02:34:42.818Z,4124.4
2023-02-12T02:41:53.162Z,4121.3
2023-02-12T02:47:53.934Z,4118.8
2023-02-12T02:54:13.942Z,4118.7
2023-02-12T02:59:51.763Z,4123.3
2023-02-12T03:05:29.284Z,4122
2023-02-12T03:11:14.371Z,4119.2
2023-02-12T03:16:53.315Z,4118.7
2023-02-12T03:22:38.563Z,4118.3
2023-02-12T03:28:14.711Z,4116
2023-02-12T03:34:34.667Z,4118.8
2023-02-12T03:40:09.849Z,4114.8
2023-02-12T03:45:53.875Z,4115.8
2023-02-12T03:51:48.786Z,4114.6
2023-02-12T03:57:25.161Z,4119
2023-02-12T04:03:00.467Z,4112.3
2023-02-12T04:08:40.046Z,4114
2023-02-12T04:14:19.850Z,4116
2023-02-12T04:19:56.300Z,4113.8
2023-02-12T04:25:32.801Z,4116.5
2023-02-12T04:31:09.757Z,4113.1
2023-02-12T04:36:59.169Z,4112.8
2023-02-12T04:42:34.675Z,4111.3
2023-02-12T04:48:10.554Z,4115.6
2023-02-12T04:54:30.916Z,4108.9
2023-02-12T05:00:26.458Z,4110.6
2023-02-12T05:06:01.427Z,4108.9
2023-02-12T05:11:49.923Z,4110.6
2023-02-12T05:17:38.639Z,4110.5
2023-02-12T05:23:19.424Z,4111
2023-02-12T05:28:56.445Z,4106.4
2023-02-12T05:34:32.251Z,4110.6
2023-02-12T05:40:08.540Z,4111.1
2023-02-12T05:46:07.725Z,4111.3
2023-02-12T05:52:06.578Z,4106.8
2023-02-12T05:58:24.012Z,4107.9
2023-02-12T06:04:52.047Z,4104.8
2023-02-12T06:10:51.332Z,4106.9
2023-02-12T06:16:54.957Z,4104.9
2023-02-12T06:22:42.315Z,4104.6
2023-02-12T06:28:35.336Z,4102.9
2023-02-12T06:34:13.919Z,4101.7
2023-02-12T06:40:05.061Z,4102.2
2023-02-12T06:45:40.708Z,4099.1
2023-02-12T06:51:19.075Z,4102.6
2023-02-12T06:56:57.410Z,4099.7
2023-02-12T07:02:33.090Z,4101.4
2023-02-12T07:08:13.033Z,4099.9
2023-02-12T07:13:59.646Z,4098.7
2023-02-12T07:19:34.654Z,4098.9
2023-02-12T07:25:18.674Z,4098.4
2023-02-12T07:30:54.909Z,4113.8
2023-02-12T07:36:30.358Z,4123.3
2023-02-12T07:42:10.995Z,4120.7
2023-02-12T07:47:46.844Z,4130.4
2023-02-12T07:53:46.618Z,4197.6
2023-02-12T07:59:25.864Z,4193.2
2023-02-12T08:05:05.074Z,4197.2
2023-02-12T08:10:40.332Z,4149.5
2023-02-12T08:16:17.854Z,4143.9
2023-02-12T08:21:53.589Z,4144.3
2023-02-12T08:27:31.689Z,4163.2
2023-02-12T08:33:07.515Z,4184
2023-02-12T08:38:42.835Z,4173.1
2023-02-12T08:44:18.519Z,4188.5
2023-02-12T08:49:53.620Z,4186.8
2023-02-12T08:55:29.104Z,4197.9
2023-02-12T09:01:05.824Z,4205.4
2023-02-12T09:06:41.282Z,4202.1
2023-02-12T09:12:17.187Z,4183.6
2023-02-12T09:17:55.838Z,4180
2023-02-12T09:23:31.117Z,4175.4
2023-02-12T09:29:06.722Z,4202.4
2023-02-12T09:34:42.731Z,4185
2023-02-12T09:40:17.951Z,4184.5
2023-02-12T09:45:54.813Z,4194.2
2023-02-12T09:51:37.234Z,4184.8
2023-02-12T09:57:13.817Z,4191.7
2023-02-12T10:02:49.373Z,4196.7
2023-02-12T10:08:26.727Z,4199.6
2023-02-12T10:14:02.520Z,4203.6
2023-02-12T10:19:37.756Z,4198.9
2023-02-12T10:25:13.192Z,4191.2
2023-02-12T10:31:08.226Z,4213.1
2023-02-12T10:36:44.038Z,4203.2
2023-02-12T10:42:19.868Z,4188.2
2023-02-12T10:48:00.806Z,4208.6
2023-02-12T10:53:36.649Z,4218.3
2023-02-12T10:59:11.687Z,4201.9
2023-02-12T11:04:47.286Z,4195.4
2023-02-12T11:10:23.348Z,4202.9
2023-02-12T11:16:03.239Z,4212.1
2023-02-12T11:21:46.530Z,4204.4
2023-02-12T11:27:42.653Z,4209.4
2023-02-12T11:33:18.921Z,4192
2023-02-12T11:39:04.711Z,4209.1
2023-02-12T11:44:43.352Z,4220.5
2023-02-12T11:50:36.531Z,4223.7
2023-02-12T11:56:33.440Z,4209.8
2023-02-12T12:02:09.514Z,4205.4
2023-02-12T12:08:05.847Z,4218.2
2023-02-12T12:13:41.204Z,4221
2023-02-12T12:19:16.516Z,4223.3
2023-02-12T12:24:52.064Z,4209.9
2023-02-12T12:30:27.350Z,4209.4
2023-02-12T12:36:02.866Z,4217.6
2023-02-12T12:41:38.141Z,4212.5
2023-02-12T12:47:13.378Z,4216
2023-02-12T12:53:05.538Z,4216.8
2023-02-12T12:58:40.706Z,4219.5
2023-02-12T13:04:23.904Z,4225.4
2023-02-12T13:10:14.494Z,4217.8
2023-02-12T13:15:59.022Z,4218.5
2023-02-12T13:21:43.199Z,4218.7
2023-02-12T13:27:19.495Z,4220.5
2023-02-12T13:32:58.807Z,4220.2
2023-02-12T13:38:39.191Z,4202.4
2023-02-12T13:44:20.947Z,4203.7
2023-02-12T13:49:57.199Z,4207.1
2023-02-12T13:55:32.330Z,4206.8
2023-02-12T14:01:08.697Z,4223.2
2023-02-12T14:06:50.498Z,4217.3
2023-02-12T14:12:46.598Z,4205.9
2023-02-12T14:18:22.152Z,4220
2023-02-12T14:24:24.759Z,4206.4
2023-02-12T14:31:09.339Z,4208.3
2023-02-12T14:36:45.544Z,4207.4
2023-02-12T14:42:23.738Z,4208.4
2023-02-12T14:48:20.841Z,4216.1
2023-02-12T14:53:53.963Z,4218.2
2023-02-12T14:59:32.861Z,4224
2023-02-12T15:05:13.080Z,4223.2
2023-02-12T15:10:58.156Z,4228.9
2023-02-12T15:18:07.867Z,4221.7
2023-02-12T15:23:43.706Z,4219.5
2023-02-12T15:29:29.273Z,4219.3
2023-02-12T15:35:04.811Z,4205.4
2023-02-12T15:40:52.797Z,4202.6
2023-02-12T15:46:28.675Z,4205.6
2023-02-12T15:52:06.280Z,4198.6
2023-02-12T15:57:49.973Z,4196
2023-02-12T16:03:31.708Z,4196.4
2023-02-12T16:09:09.776Z,4195.7
2023-02-12T16:14:45.680Z,4194.2
2023-02-12T16:20:22.641Z,4197
2023-02-12T16:26:00.290Z,4196.5
2023-02-12T16:31:36.686Z,4190.9
2023-02-12T16:37:14.257Z,4188.7
2023-02-12T16:43:34.723Z,4188.2
2023-02-12T16:49:31.730Z,4179.5
2023-02-12T16:55:04.288Z,4183.8
2023-02-12T17:00:54.059Z,4182.5
2023-02-12T17:06:32.464Z,4185.2
2023-02-12T17:12:39.794Z,4182.8
2023-02-12T17:18:18.997Z,4180.1
2023-02-12T17:23:54.247Z,4178
2023-02-12T17:29:28.998Z,4178.5
2023-02-12T17:35:09.797Z,4175.6
2023-02-12T17:40:57.499Z,4176.8
2023-02-12T17:46:54.725Z,4172.8
2023-02-12T17:52:30.523Z,4173.4
2023-02-12T17:58:05.541Z,4172.9
2023-02-12T18:03:45.912Z,4173.8
2023-02-12T18:09:24.133Z,4173.1
2023-02-12T18:15:02.141Z,4173.8
2023-02-12T18:20:59.728Z,4174.3
2023-02-12T18:26:36.543Z,4173.6
2023-02-12T18:32:12.556Z,4167.9
2023-02-12T18:37:47.634Z,4169.2
2023-02-12T18:43:28.226Z,4169.7
2023-02-12T18:49:03.050Z,4168.9
2023-02-12T18:54:37.787Z,4167.1
2023-02-12T19:00:13.189Z,4166.2
2023-02-12T19:05:49.549Z,4167.9
2023-02-12T19:11:26.074Z,4164.2
2023-02-12T19:17:01.083Z,4165.6
2023-02-12T19:22:46.402Z,4161.5
2023-02-12T19:28:22.230Z,4161.4
2023-02-12T19:33:57.975Z,4160.4
2023-02-12T19:39:33.853Z,4159.9
2023-02-12T19:45:11.972Z,4163.4
2023-02-12T19:50:48.054Z,4158.9
2023-02-12T19:56:23.514Z,4157
2023-02-12T20:01:59.306Z,4156.3
2023-02-12T20:07:41.537Z,4158.7
2023-02-12T20:13:21.794Z,4159
2023-02-12T20:19:07.706Z,4158.4
2023-02-12T20:24:53.030Z,4155.7
2023-02-12T20:30:38.930Z,4156.5
2023-02-12T20:36:24.526Z,4161.4
2023-02-12T20:42:04.890Z,4156.5
2023-02-12T20:47:50.202Z,4157.7
2023-02-12T20:53:35.556Z,4157.7
2023-02-12T20:59:15.601Z,4156
2023-02-12T21:05:00.568Z,4157
2023-02-12T21:10:46.475Z,4158.9
2023-02-12T21:16:33.443Z,4155.5
2023-02-12T21:22:18.298Z,4157.7
2023-02-12T21:28:03.653Z,4155
2023-02-12T21:33:43.695Z,4155.3
2023-02-12T21:39:21.903Z,4153.7
2023-02-12T21:45:05.898Z,4155.3
2023-02-12T21:50:41.266Z,4149.6
2023-02-12T21:56:22.243Z,4150.6
2023-02-12T22:02:06.426Z,4151.8
2023-02-12T22:07:42.914Z,4155.8
2023-02-12T22:13:52.868Z,4150.3
2023-02-12T22:19:27.951Z,4151
2023-02-12T22:25:48.034Z,4152.2
2023-02-12T22:31:24.759Z,4151.2
2023-02-12T22:37:01.717Z,4150.1
2023-02-12T22:42:39.636Z,4150.3
2023-02-12T22:48:43.204Z,4150.6
2023-02-12T22:54:18.646Z,4148.8
2023-02-12T23:00:15.527Z,4145.1
2023-02-12T23:05:50.768Z,4144.8
2023-02-12T23:11:27.128Z,4147.6
2023-02-12T23:17:03.485Z,4146
2023-02-12T23:22:38.483Z,4146.5
2023-02-12T23:28:14.795Z,4146.8
2023-02-12T23:34:11.143Z,4146
2023-02-12T23:40:06.096Z,4145.1
2023-02-12T23:46:24.947Z,4147.8
2023-02-12T23:52:08.720Z,4144.8
2023-02-12T23:57:44.260Z,4143.3
